sensor_id;sensor_type;location;lat;lon;timestamp;pressure;altitude;pressure_sealevel;temperature;humidity
50518;BME280;37075;44.084;2.962;2023-09-12T00:02:56;97616.94;;;20.09;60.80
50518;BME280;37075;44.084;2.962;2023-09-12T00:05:50;97628.00;;;20.12;60.88
50518;BME280;37075;44.084;2.962;2023-09-12T00:08:36;97628.38;;;20.14;61.19
50518;BME280;37075;44.084;2.962;2023-09-12T00:11:24;97622.44;;;20.16;61.62
50518;BME280;37075;44.084;2.962;2023-09-12T00:14:14;97633.94;;;20.14;61.69
50518;BME280;37075;44.084;2.962;2023-09-12T00:17:00;97628.38;;;20.14;61.60
50518;BME280;37075;44.084;2.962;2023-09-12T00:19:46;97618.91;;;20.15;61.54
50518;BME280;37075;44.084;2.962;2023-09-12T00:22:32;97604.25;;;20.15;61.76
50518;BME280;37075;44.084;2.962;2023-09-12T00:25:18;97599.50;;;20.15;61.78
50518;BME280;37075;44.084;2.962;2023-09-12T00:28:05;97594.75;;;20.16;61.96
50518;BME280;37075;44.084;2.962;2023-09-12T00:30:51;97602.66;;;20.17;61.98
50518;BME280;37075;44.084;2.962;2023-09-12T00:33:37;97590.78;;;20.20;61.71
50518;BME280;37075;44.084;2.962;2023-09-12T00:36:24;97593.16;;;20.22;61.96
50518;BME280;37075;44.084;2.962;2023-09-12T00:39:10;97591.56;;;20.24;61.80
50518;BME280;37075;44.084;2.962;2023-09-12T00:41:56;97593.13;;;20.25;61.84
50518;BME280;37075;44.084;2.962;2023-09-12T00:44:43;97592.75;;;20.23;61.97
50518;BME280;37075;44.084;2.962;2023-09-12T00:47:30;97580.88;;;20.26;61.93
50518;BME280;37075;44.084;2.962;2023-09-12T00:50:16;97584.03;;;20.28;61.75
50518;BME280;37075;44.084;2.962;2023-09-12T00:53:04;97583.66;;;20.30;61.48
50518;BME280;37075;44.084;2.962;2023-09-12T00:55:54;97587.59;;;20.25;61.98
50518;BME280;37075;44.084;2.962;2023-09-12T00:59:00;97593.53;;;20.24;61.98
50518;BME280;37075;44.084;2.962;2023-09-12T01:01:48;97593.94;;;20.22;62.27
50518;BME280;37075;44.084;2.962;2023-09-12T01:04:53;97610.94;;;20.24;62.38
50518;BME280;37075;44.084;2.962;2023-09-12T01:07:39;97611.34;;;20.26;61.93
50518;BME280;37075;44.084;2.962;2023-09-12T01:10:27;97601.06;;;20.30;61.98
50518;BME280;37075;44.084;2.962;2023-09-12T01:13:14;97615.28;;;20.32;61.96
50518;BME280;37075;44.084;2.962;2023-09-12T01:16:00;97617.66;;;20.38;61.74
50518;BME280;37075;44.084;2.962;2023-09-12T01:18:47;97610.53;;;20.40;61.86
50518;BME280;37075;44.084;2.962;2023-09-12T01:22:09;97612.50;;;20.40;61.54
50518;BME280;37075;44.084;2.962;2023-09-12T01:25:14;97610.94;;;20.42;61.50
50518;BME280;37075;44.084;2.962;2023-09-12T01:28:09;97612.09;;;20.45;61.30
50518;BME280;37075;44.084;2.962;2023-09-12T01:30:55;97609.72;;;20.47;61.15
50518;BME280;37075;44.084;2.962;2023-09-12T01:33:43;97605.34;;;20.49;61.16
50518;BME280;37075;44.084;2.962;2023-09-12T01:36:29;97612.06;;;20.52;61.23
50518;BME280;37075;44.084;2.962;2023-09-12T01:39:15;97616.03;;;20.54;61.46
50518;BME280;37075;44.084;2.962;2023-09-12T01:42:02;97617.59;;;20.55;61.65
50518;BME280;37075;44.084;2.962;2023-09-12T01:44:56;97622.75;;;20.57;61.79
50518;BME280;37075;44.084;2.962;2023-09-12T01:47:42;97623.16;;;20.59;61.62
50518;BME280;37075;44.084;2.962;2023-09-12T01:50:30;97623.94;;;20.59;61.68
50518;BME280;37075;44.084;2.962;2023-09-12T01:53:17;97609.69;;;20.61;61.75
50518;BME280;37075;44.084;2.962;2023-09-12T01:56:03;97606.50;;;20.62;61.88
50518;BME280;37075;44.084;2.962;2023-09-12T01:58:49;97596.22;;;20.63;61.92
50518;BME280;37075;44.084;2.962;2023-09-12T02:01:37;97593.44;;;20.63;61.81
50518;BME280;37075;44.084;2.962;2023-09-12T02:04:23;97583.16;;;20.63;61.83
50518;BME280;37075;44.084;2.962;2023-09-12T02:07:29;97572.84;;;20.64;61.71
50518;BME280;37075;44.084;2.962;2023-09-12T02:10:18;97575.63;;;20.64;61.77
50518;BME280;37075;44.084;2.962;2023-09-12T02:13:04;97578.78;;;20.62;61.74
50518;BME280;37075;44.084;2.962;2023-09-12T02:15:58;97580.41;;;20.53;62.27
50518;BME280;37075;44.084;2.962;2023-09-12T02:18:46;97581.22;;;20.39;62.40
50518;BME280;37075;44.084;2.962;2023-09-12T02:21:33;97580.47;;;20.28;62.84
50518;BME280;37075;44.084;2.962;2023-09-12T02:24:19;97597.50;;;20.19;62.82
50518;BME280;37075;44.084;2.962;2023-09-12T02:27:06;97580.50;;;20.17;62.87
50518;BME280;37075;44.084;2.962;2023-09-12T02:29:52;97587.22;;;20.20;62.56
50518;BME280;37075;44.084;2.962;2023-09-12T02:32:38;97586.84;;;20.18;62.42
50518;BME280;37075;44.084;2.962;2023-09-12T02:35:27;97584.47;;;20.16;62.25
50518;BME280;37075;44.084;2.962;2023-09-12T02:38:14;97583.28;;;20.14;61.84
50518;BME280;37075;44.084;2.962;2023-09-12T02:41:00;97590.81;;;20.10;62.01
50518;BME280;37075;44.084;2.962;2023-09-12T02:43:47;97586.06;;;20.03;61.77
50518;BME280;37075;44.084;2.962;2023-09-12T02:46:34;97592.81;;;20.02;61.75
50518;BME280;37075;44.084;2.962;2023-09-12T02:49:20;97590.84;;;19.99;61.48
50518;BME280;37075;44.084;2.962;2023-09-12T02:52:07;97590.84;;;19.95;61.44
50518;BME280;37075;44.084;2.962;2023-09-12T02:54:53;97588.09;;;19.92;61.04
50518;BME280;37075;44.084;2.962;2023-09-12T02:57:40;97579.78;;;19.92;61.19
50518;BME280;37075;44.084;2.962;2023-09-12T03:00:27;97582.56;;;19.88;61.10
50518;BME280;37075;44.084;2.962;2023-09-12T03:03:13;97592.84;;;19.84;60.78
50518;BME280;37075;44.084;2.962;2023-09-12T03:05:59;97591.66;;;19.82;60.81
50518;BME280;37075;44.084;2.962;2023-09-12T03:08:47;97594.44;;;19.78;60.96
50518;BME280;37075;44.084;2.962;2023-09-12T03:11:33;97597.19;;;19.75;60.54
50518;BME280;37075;44.084;2.962;2023-09-12T03:14:20;97606.69;;;19.77;60.79
50518;BME280;37075;44.084;2.962;2023-09-12T03:17:07;97596.00;;;19.76;60.97
50518;BME280;37075;44.084;2.962;2023-09-12T03:19:53;97599.56;;;19.76;61.02
50518;BME280;37075;44.084;2.962;2023-09-12T03:22:40;97605.09;;;19.76;61.39
50518;BME280;37075;44.084;2.962;2023-09-12T03:25:46;97606.69;;;19.77;61.82
50518;BME280;37075;44.084;2.962;2023-09-12T03:28:33;97613.81;;;19.78;61.74
50518;BME280;37075;44.084;2.962;2023-09-12T03:31:19;97605.13;;;19.80;62.03
50518;BME280;37075;44.084;2.962;2023-09-12T03:34:06;97620.16;;;19.79;62.43
50518;BME280;37075;44.084;2.962;2023-09-12T03:37:10;97620.50;;;19.77;62.42
50518;BME280;37075;44.084;2.962;2023-09-12T03:39:57;97628.03;;;19.77;62.56
50518;BME280;37075;44.084;2.962;2023-09-12T03:42:45;97635.13;;;19.78;62.51
50518;BME280;37075;44.084;2.962;2023-09-12T03:45:31;97641.47;;;19.75;62.95
50518;BME280;37075;44.084;2.962;2023-09-12T03:48:17;97633.16;;;19.71;62.97
50518;BME280;37075;44.084;2.962;2023-09-12T03:51:04;97627.25;;;19.73;63.24
50518;BME280;37075;44.084;2.962;2023-09-12T03:53:50;97633.16;;;19.75;63.01
50518;BME280;37075;44.084;2.962;2023-09-12T03:56:36;97637.13;;;19.77;62.87
50518;BME280;37075;44.084;2.962;2023-09-12T03:59:24;97631.22;;;19.79;63.25
50518;BME280;37075;44.084;2.962;2023-09-12T04:02:10;97631.22;;;19.82;62.85
50518;BME280;37075;44.084;2.962;2023-09-12T04:04:56;97626.47;;;19.83;62.82
50518;BME280;37075;44.084;2.962;2023-09-12T04:07:44;97633.56;;;19.84;62.95
50518;BME280;37075;44.084;2.962;2023-09-12T04:10:30;97627.25;;;19.83;62.74
50518;BME280;37075;44.084;2.962;2023-09-12T04:13:16;97624.09;;;19.81;62.90
50518;BME280;37075;44.084;2.962;2023-09-12T04:16:04;97622.13;;;19.78;62.77
50518;BME280;37075;44.084;2.962;2023-09-12T04:18:50;97627.25;;;19.73;62.27
50518;BME280;37075;44.084;2.962;2023-09-12T04:21:36;97616.56;;;19.71;62.34
50518;BME280;37075;44.084;2.962;2023-09-12T04:24:22;97630.41;;;19.60;62.43
50518;BME280;37075;44.084;2.962;2023-09-12T04:27:08;97627.59;;;19.42;63.26
50518;BME280;37075;44.084;2.962;2023-09-12T04:29:55;97615.75;;;19.35;63.19
50518;BME280;37075;44.084;2.962;2023-09-12T04:32:42;97616.13;;;19.19;63.85
50518;BME280;37075;44.084;2.962;2023-09-12T04:35:28;97609.78;;;19.15;63.83
50518;BME280;37075;44.084;2.962;2023-09-12T04:38:15;97597.16;;;19.14;63.89
50518;BME280;37075;44.084;2.962;2023-09-12T04:41:02;97597.16;;;19.14;63.75
50518;BME280;37075;44.084;2.962;2023-09-12T04:43:50;97603.88;;;19.13;63.57
50518;BME280;37075;44.084;2.962;2023-09-12T04:46:36;97606.25;;;19.11;63.15
50518;BME280;37075;44.084;2.962;2023-09-12T04:49:24;97602.63;;;18.96;63.85
50518;BME280;37075;44.084;2.962;2023-09-12T04:52:09;97613.69;;;18.96;63.32
50518;BME280;37075;44.084;2.962;2023-09-12T04:54:55;97610.94;;;18.96;63.31
50518;BME280;37075;44.084;2.962;2023-09-12T04:57:41;97610.13;;;18.92;63.30
50518;BME280;37075;44.084;2.962;2023-09-12T05:00:28;97602.22;;;18.87;63.40
50518;BME280;37075;44.084;2.962;2023-09-12T05:03:14;97600.25;;;18.84;63.31
50518;BME280;37075;44.084;2.962;2023-09-12T05:06:03;97597.88;;;18.79;63.40
50518;BME280;37075;44.084;2.962;2023-09-12T05:08:49;97610.47;;;18.73;63.38
50518;BME280;37075;44.084;2.962;2023-09-12T05:11:35;97606.84;;;18.62;63.54
50518;BME280;37075;44.084;2.962;2023-09-12T05:14:21;97604.88;;;18.59;63.32
50518;BME280;37075;44.084;2.962;2023-09-12T05:17:08;97603.28;;;18.54;63.71
50518;BME280;37075;44.084;2.962;2023-09-12T05:19:54;97618.22;;;18.42;64.08
50518;BME280;37075;44.084;2.962;2023-09-12T05:22:41;97606.72;;;18.30;65.27
50518;BME280;37075;44.084;2.962;2023-09-12T05:25:28;97611.78;;;18.17;65.38
50518;BME280;37075;44.084;2.962;2023-09-12T05:28:14;97610.19;;;18.16;65.03
50518;BME280;37075;44.084;2.962;2023-09-12T05:31:03;97607.44;;;18.16;64.90
50518;BME280;37075;44.084;2.962;2023-09-12T05:33:51;97611.38;;;18.15;64.71
50518;BME280;37075;44.084;2.962;2023-09-12T05:36:37;97610.97;;;18.13;64.93
50518;BME280;37075;44.084;2.962;2023-09-12T05:39:25;97628.72;;;18.12;64.70
50518;BME280;37075;44.084;2.962;2023-09-12T05:42:11;97630.28;;;18.09;64.17
50518;BME280;37075;44.084;2.962;2023-09-12T05:44:59;97631.84;;;18.10;64.65
50518;BME280;37075;44.084;2.962;2023-09-12T05:47:45;97629.09;;;18.10;64.25
50518;BME280;37075;44.084;2.962;2023-09-12T05:50:51;97639.34;;;18.10;64.39
50518;BME280;37075;44.084;2.962;2023-09-12T05:53:37;97644.06;;;18.09;64.44
50518;BME280;37075;44.084;2.962;2023-09-12T05:56:43;97645.66;;;18.10;64.78
50518;BME280;37075;44.084;2.962;2023-09-12T05:59:29;97645.66;;;18.10;64.45
50518;BME280;37075;44.084;2.962;2023-09-12T06:02:16;97646.44;;;18.11;64.69
50518;BME280;37075;44.084;2.962;2023-09-12T06:05:02;97653.53;;;18.12;64.47
50518;BME280;37075;44.084;2.962;2023-09-12T06:07:49;97655.91;;;18.13;64.73
50518;BME280;37075;44.084;2.962;2023-09-12T06:10:35;97656.31;;;18.12;64.93
50518;BME280;37075;44.084;2.962;2023-09-12T06:13:23;97652.78;;;18.15;64.88
50518;BME280;37075;44.084;2.962;2023-09-12T06:16:09;97646.47;;;18.18;64.89
50518;BME280;37075;44.084;2.962;2023-09-12T06:18:55;97658.38;;;18.22;65.15
50518;BME280;37075;44.084;2.962;2023-09-12T06:21:41;97655.22;;;18.27;65.28
50518;BME280;37075;44.084;2.962;2023-09-12T06:24:27;97644.59;;;18.33;65.61
50518;BME280;37075;44.084;2.962;2023-09-12T06:27:13;97634.78;;;18.39;65.57
50518;BME280;37075;44.084;2.962;2023-09-12T06:30:06;97628.09;;;18.43;65.82
50518;BME280;37075;44.084;2.962;2023-09-12T06:32:52;97628.13;;;18.51;65.93
50518;BME280;37075;44.084;2.962;2023-09-12T06:35:38;97634.47;;;18.58;66.21
50518;BME280;37075;44.084;2.962;2023-09-12T06:38:24;97651.88;;;18.66;66.44
50518;BME280;37075;44.084;2.962;2023-09-12T06:41:10;97662.97;;;18.73;66.25
50518;BME280;37075;44.084;2.962;2023-09-12T06:43:56;97656.69;;;18.76;66.82
50518;BME280;37075;44.084;2.962;2023-09-12T06:46:44;97655.50;;;18.77;66.70
50518;BME280;37075;44.084;2.962;2023-09-12T06:49:30;97665.41;;;18.85;66.71
50518;BME280;37075;44.084;2.962;2023-09-12T06:52:17;97658.31;;;18.98;66.28
50518;BME280;37075;44.084;2.962;2023-09-12T06:55:03;97650.88;;;19.17;66.26
50518;BME280;37075;44.084;2.962;2023-09-12T06:57:50;97652.88;;;19.34;65.49
50518;BME280;37075;44.084;2.962;2023-09-12T07:00:36;97651.72;;;19.49;65.41
50518;BME280;37075;44.084;2.962;2023-09-12T07:03:23;97654.13;;;19.61;64.76
50518;BME280;37075;44.084;2.962;2023-09-12T07:06:09;97656.50;;;19.74;64.59
50518;BME280;37075;44.084;2.962;2023-09-12T07:08:55;97653.75;;;19.84;63.79
50518;BME280;37075;44.084;2.962;2023-09-12T07:11:42;97653.31;;;19.96;63.83
50518;BME280;37075;44.084;2.962;2023-09-12T07:14:28;97650.56;;;20.07;63.52
50518;BME280;37075;44.084;2.962;2023-09-12T07:17:15;97648.16;;;20.16;63.19
50518;BME280;37075;44.084;2.962;2023-09-12T07:20:03;97654.06;;;20.25;62.59
50518;BME280;37075;44.084;2.962;2023-09-12T07:22:51;97656.44;;;20.34;61.96
50518;BME280;37075;44.084;2.962;2023-09-12T07:25:38;97654.88;;;20.40;61.47
50518;BME280;37075;44.084;2.962;2023-09-12T07:28:25;97663.94;;;20.48;61.58
50518;BME280;37075;44.084;2.962;2023-09-12T07:31:30;97659.56;;;20.54;61.42
50518;BME280;37075;44.084;2.962;2023-09-12T07:34:16;97671.84;;;20.60;61.61
50518;BME280;37075;44.084;2.962;2023-09-12T07:37:03;97671.81;;;20.67;61.39
50518;BME280;37075;44.084;2.962;2023-09-12T07:39:50;97666.63;;;20.73;61.13
50518;BME280;37075;44.084;2.962;2023-09-12T07:42:35;97671.34;;;20.79;60.95
50518;BME280;37075;44.084;2.962;2023-09-12T07:45:22;97676.09;;;20.86;60.75
50518;BME280;37075;44.084;2.962;2023-09-12T07:48:09;97679.25;;;20.91;60.34
50518;BME280;37075;44.084;2.962;2023-09-12T07:50:55;97676.44;;;20.99;60.23
50518;BME280;37075;44.084;2.962;2023-09-12T07:53:43;97682.31;;;21.08;59.76
50518;BME280;37075;44.084;2.962;2023-09-12T07:56:29;97685.88;;;21.15;59.09
50518;BME280;37075;44.084;2.962;2023-09-12T07:59:15;97683.84;;;21.23;58.75
50518;BME280;37075;44.084;2.962;2023-09-12T08:02:01;97677.47;;;21.30;58.43
50518;BME280;37075;44.084;2.962;2023-09-12T08:04:48;97686.94;;;21.39;58.06
50518;BME280;37075;44.084;2.962;2023-09-12T08:07:36;97688.06;;;21.49;57.81
50518;BME280;37075;44.084;2.962;2023-09-12T08:10:23;97681.25;;;21.61;57.75
50518;BME280;37075;44.084;2.962;2023-09-12T08:13:09;97681.13;;;21.75;57.29
50518;BME280;37075;44.084;2.962;2023-09-12T08:15:56;97685.44;;;21.87;56.89
50518;BME280;37075;44.084;2.962;2023-09-12T08:18:42;97681.34;;;21.98;56.57
50518;BME280;37075;44.084;2.962;2023-09-12T08:21:28;97683.63;;;22.10;56.37
50518;BME280;37075;44.084;2.962;2023-09-12T08:24:14;97683.94;;;22.23;56.15
50518;BME280;37075;44.084;2.962;2023-09-12T08:27:02;97674.72;;;22.30;55.48
50518;BME280;37075;44.084;2.962;2023-09-12T08:29:49;97675.44;;;22.41;55.49
50518;BME280;37075;44.084;2.962;2023-09-12T08:32:35;97678.97;;;22.45;55.46
50518;BME280;37075;44.084;2.962;2023-09-12T08:35:20;97677.22;;;22.58;55.16
50518;BME280;37075;44.084;2.962;2023-09-12T08:38:06;97681.06;;;22.71;55.12
50518;BME280;37075;44.084;2.962;2023-09-12T08:40:53;97684.13;;;22.81;54.88
50518;BME280;37075;44.084;2.962;2023-09-12T08:43:40;97681.25;;;22.91;54.71
50518;BME280;37075;44.084;2.962;2023-09-12T08:46:27;97676.78;;;22.97;54.29
50518;BME280;37075;44.084;2.962;2023-09-12T08:49:12;97678.69;;;23.04;53.82
50518;BME280;37075;44.084;2.962;2023-09-12T08:51:58;97681.75;;;23.13;54.19
50518;BME280;37075;44.084;2.962;2023-09-12T08:54:44;97681.19;;;23.25;54.15
50518;BME280;37075;44.084;2.962;2023-09-12T08:57:32;97679.47;;;23.35;53.69
50518;BME280;37075;44.084;2.962;2023-09-12T09:00:39;97683.25;;;23.48;53.81
50518;BME280;37075;44.084;2.962;2023-09-12T09:03:28;97683.06;;;23.62;53.29
50518;BME280;37075;44.084;2.962;2023-09-12T09:06:33;97679.66;;;23.78;52.95
50518;BME280;37075;44.084;2.962;2023-09-12T09:09:22;97670.69;;;23.90;52.47
50518;BME280;37075;44.084;2.962;2023-09-12T09:12:27;97672.03;;;24.06;52.03
50518;BME280;37075;44.084;2.962;2023-09-12T09:15:23;97671.84;;;24.16;52.24
50518;BME280;37075;44.084;2.962;2023-09-12T09:18:12;97674.44;;;24.27;51.68
50518;BME280;37075;44.084;2.962;2023-09-12T09:20:58;97668.28;;;24.39;52.25
50518;BME280;37075;44.084;2.962;2023-09-12T09:23:45;97670.09;;;24.49;51.70
50518;BME280;37075;44.084;2.962;2023-09-12T09:26:42;97668.72;;;24.57;50.84
50518;BME280;37075;44.084;2.962;2023-09-12T09:29:29;97672.94;;;24.66;50.92
50518;BME280;37075;44.084;2.962;2023-09-12T09:32:19;97665.97;;;24.77;51.23
50518;BME280;37075;44.084;2.962;2023-09-12T09:35:09;97665.72;;;24.88;50.55
50518;BME280;37075;44.084;2.962;2023-09-12T09:37:56;97667.94;;;24.97;50.06
50518;BME280;37075;44.084;2.962;2023-09-12T09:40:43;97673.34;;;25.07;49.99
50518;BME280;37075;44.084;2.962;2023-09-12T09:43:30;97678.31;;;25.16;49.68
50518;BME280;37075;44.084;2.962;2023-09-12T09:46:17;97676.16;;;25.24;48.95
50518;BME280;37075;44.084;2.962;2023-09-12T09:49:03;97667.56;;;25.34;49.62
50518;BME280;37075;44.084;2.962;2023-09-12T09:52:12;97674.03;;;25.47;48.98
50518;BME280;37075;44.084;2.962;2023-09-12T09:54:58;97679.91;;;25.53;48.78
50518;BME280;37075;44.084;2.962;2023-09-12T09:57:44;97673.38;;;25.60;48.85
50518;BME280;37075;44.084;2.962;2023-09-12T10:00:33;97670.78;;;25.69;48.17
50518;BME280;37075;44.084;2.962;2023-09-12T10:03:21;97666.31;;;25.71;47.91
50518;BME280;37075;44.084;2.962;2023-09-12T10:06:10;97669.03;;;25.75;47.73
50518;BME280;37075;44.084;2.962;2023-09-12T10:09:16;97666.00;;;25.86;46.63
50518;BME280;37075;44.084;2.962;2023-09-12T10:12:04;97664.94;;;25.96;46.57
50518;BME280;37075;44.084;2.962;2023-09-12T10:14:51;97660.75;;;26.04;46.48
50518;BME280;37075;44.084;2.962;2023-09-12T10:17:39;97657.25;;;26.16;46.05
50518;BME280;37075;44.084;2.962;2023-09-12T10:20:33;97655.31;;;26.29;46.17
50518;BME280;37075;44.084;2.962;2023-09-12T10:23:25;97644.31;;;26.38;45.45
50518;BME280;37075;44.084;2.962;2023-09-12T10:26:14;97647.47;;;26.53;45.43
50518;BME280;37075;44.084;2.962;2023-09-12T10:29:02;97641.16;;;26.65;45.11
50518;BME280;37075;44.084;2.962;2023-09-12T10:31:49;97652.03;;;26.76;44.63
50518;BME280;37075;44.084;2.962;2023-09-12T10:34:37;97653.44;;;26.84;44.73
50518;BME280;37075;44.084;2.962;2023-09-12T10:37:29;97648.75;;;26.94;44.55
50518;BME280;37075;44.084;2.962;2023-09-12T10:40:15;97651.94;;;27.09;43.80
50518;BME280;37075;44.084;2.962;2023-09-12T10:43:05;97652.06;;;27.18;44.13
50518;BME280;37075;44.084;2.962;2023-09-12T10:45:53;97654.41;;;27.32;44.14
50518;BME280;37075;44.084;2.962;2023-09-12T10:48:40;97652.88;;;27.44;43.78
50518;BME280;37075;44.084;2.962;2023-09-12T10:51:27;97650.75;;;27.60;43.68
50518;BME280;37075;44.084;2.962;2023-09-12T10:54:15;97650.88;;;27.70;43.21
50518;BME280;37075;44.084;2.962;2023-09-12T10:57:02;97652.66;;;27.76;42.94
50518;BME280;37075;44.084;2.962;2023-09-12T11:00:12;97650.41;;;27.97;42.38
50518;BME280;37075;44.084;2.962;2023-09-12T11:02:58;97642.38;;;28.20;42.41
50518;BME280;37075;44.084;2.962;2023-09-12T11:05:52;97640.44;;;28.43;42.09
50518;BME280;37075;44.084;2.962;2023-09-12T11:08:40;97634.50;;;28.63;41.64
50518;BME280;37075;44.084;2.962;2023-09-12T11:11:26;97636.78;;;28.77;40.89
50518;BME280;37075;44.084;2.962;2023-09-12T11:14:13;97635.97;;;28.89;40.43
50518;BME280;37075;44.084;2.962;2023-09-12T11:17:23;97640.34;;;28.90;39.80
50518;BME280;37075;44.084;2.962;2023-09-12T11:20:10;97650.06;;;28.98;40.01
50518;BME280;37075;44.084;2.962;2023-09-12T11:23:10;97646.25;;;29.14;39.87
50518;BME280;37075;44.084;2.962;2023-09-12T11:26:03;97646.16;;;29.27;39.66
50518;BME280;37075;44.084;2.962;2023-09-12T11:28:51;97642.28;;;29.33;38.99
50518;BME280;37075;44.084;2.962;2023-09-12T11:31:40;97653.53;;;29.33;39.01
50518;BME280;37075;44.084;2.962;2023-09-12T11:34:29;97650.13;;;29.38;38.98
50518;BME280;37075;44.084;2.962;2023-09-12T11:37:23;97652.47;;;29.40;38.84
50518;BME280;37075;44.084;2.962;2023-09-12T11:40:17;97650.38;;;29.53;38.70
50518;BME280;37075;44.084;2.962;2023-09-12T11:43:04;97649.44;;;29.56;38.66
50518;BME280;37075;44.084;2.962;2023-09-12T11:45:51;97650.56;;;29.59;38.73
50518;BME280;37075;44.084;2.962;2023-09-12T11:48:38;97649.47;;;29.65;38.94
50518;BME280;37075;44.084;2.962;2023-09-12T11:51:26;97651.69;;;29.70;38.73
50518;BME280;37075;44.084;2.962;2023-09-12T11:54:14;97643.28;;;29.70;38.36
50518;BME280;37075;44.084;2.962;2023-09-12T11:57:01;97644.63;;;29.66;37.91
50518;BME280;37075;44.084;2.962;2023-09-12T11:59:48;97650.13;;;29.69;38.33
50518;BME280;37075;44.084;2.962;2023-09-12T12:02:55;97652.94;;;29.69;38.02
50518;BME280;37075;44.084;2.962;2023-09-12T12:05:41;97644.06;;;29.71;38.21
50518;BME280;37075;44.084;2.962;2023-09-12T12:08:29;97630.72;;;29.62;38.56
50518;BME280;37075;44.084;2.962;2023-09-12T12:11:15;97631.03;;;29.55;38.75
50518;BME280;37075;44.084;2.962;2023-09-12T12:14:10;97633.59;;;29.71;38.79
50518;BME280;37075;44.084;2.962;2023-09-12T12:16:56;97628.75;;;29.72;39.06
50518;BME280;37075;44.084;2.962;2023-09-12T12:19:45;97628.44;;;29.79;38.64
50518;BME280;37075;44.084;2.962;2023-09-12T12:22:32;97630.00;;;29.80;38.31
50518;BME280;37075;44.084;2.962;2023-09-12T12:25:19;97632.03;;;29.80;38.49
50518;BME280;37075;44.084;2.962;2023-09-12T12:28:06;97632.34;;;29.82;38.07
50518;BME280;37075;44.084;2.962;2023-09-12T12:30:53;97624.09;;;29.87;37.86
50518;BME280;37075;44.084;2.962;2023-09-12T12:33:40;97625.38;;;29.95;38.27
50518;BME280;37075;44.084;2.962;2023-09-12T12:36:33;97623.06;;;30.03;37.83
50518;BME280;37075;44.084;2.962;2023-09-12T12:39:26;97622.28;;;30.12;37.15
50518;BME280;37075;44.084;2.962;2023-09-12T12:42:14;97613.22;;;30.17;36.70
50518;BME280;37075;44.084;2.962;2023-09-12T12:45:00;97611.53;;;30.19;36.87
50518;BME280;37075;44.084;2.962;2023-09-12T12:48:05;97609.50;;;30.20;36.54
50518;BME280;37075;44.084;2.962;2023-09-12T12:50:52;97607.00;;;30.22;36.26
50518;BME280;37075;44.084;2.962;2023-09-12T12:53:38;97613.53;;;30.19;36.53
50518;BME280;37075;44.084;2.962;2023-09-12T12:56:27;97618.22;;;30.13;36.10
50518;BME280;37075;44.084;2.962;2023-09-12T12:59:15;97611.97;;;30.08;36.14
50518;BME280;37075;44.084;2.962;2023-09-12T13:02:01;97605.22;;;29.97;36.35
50518;BME280;37075;44.084;2.962;2023-09-12T13:04:48;97616.91;;;29.86;36.38
50518;BME280;37075;44.084;2.962;2023-09-12T13:07:34;97615.00;;;29.74;36.57
50518;BME280;37075;44.084;2.962;2023-09-12T13:10:21;97594.66;;;29.61;36.73
50518;BME280;37075;44.084;2.962;2023-09-12T13:13:07;97584.78;;;29.47;37.01
50518;BME280;37075;44.084;2.962;2023-09-12T13:15:54;97596.09;;;29.34;37.49
50518;BME280;37075;44.084;2.962;2023-09-12T13:18:41;97606.09;;;29.35;38.82
50518;BME280;37075;44.084;2.962;2023-09-12T13:21:27;97615.59;;;29.29;38.47
50518;BME280;37075;44.084;2.962;2023-09-12T13:24:14;97605.91;;;29.30;38.68
50518;BME280;37075;44.084;2.962;2023-09-12T13:27:00;97593.59;;;29.36;38.56
50518;BME280;37075;44.084;2.962;2023-09-12T13:29:46;97600.56;;;29.44;39.15
50518;BME280;37075;44.084;2.962;2023-09-12T13:32:34;97613.34;;;29.45;38.40
50518;BME280;37075;44.084;2.962;2023-09-12T13:35:21;97602.13;;;29.45;37.90
50518;BME280;37075;44.084;2.962;2023-09-12T13:38:07;97589.63;;;29.46;38.13
50518;BME280;37075;44.084;2.962;2023-09-12T13:40:53;97592.59;;;29.52;37.83
50518;BME280;37075;44.084;2.962;2023-09-12T13:43:40;97594.81;;;29.57;38.08
50518;BME280;37075;44.084;2.962;2023-09-12T13:46:27;97600.56;;;29.54;37.79
50518;BME280;37075;44.084;2.962;2023-09-12T13:49:33;97585.88;;;29.50;37.97
50518;BME280;37075;44.084;2.962;2023-09-12T13:52:19;97571.84;;;29.59;37.68
50518;BME280;37075;44.084;2.962;2023-09-12T13:55:06;97571.56;;;29.66;38.05
50518;BME280;37075;44.084;2.962;2023-09-12T13:57:58;97577.84;;;29.79;38.05
50518;BME280;37075;44.084;2.962;2023-09-12T14:00:44;97579.09;;;29.87;38.18
50518;BME280;37075;44.084;2.962;2023-09-12T14:03:30;97577.41;;;29.99;37.08
50518;BME280;37075;44.084;2.962;2023-09-12T14:06:17;97573.84;;;30.17;36.81
50518;BME280;37075;44.084;2.962;2023-09-12T14:09:04;97572.44;;;30.30;37.03
50518;BME280;37075;44.084;2.962;2023-09-12T14:11:50;97571.66;;;30.48;36.85
50518;BME280;37075;44.084;2.962;2023-09-12T14:14:36;97566.81;;;30.67;37.31
50518;BME280;37075;44.084;2.962;2023-09-12T14:17:22;97551.59;;;30.83;38.25
50518;BME280;37075;44.084;2.962;2023-09-12T14:20:09;97563.00;;;30.97;37.80
50518;BME280;37075;44.084;2.962;2023-09-12T14:22:56;97556.84;;;31.08;37.25
50518;BME280;37075;44.084;2.962;2023-09-12T14:25:42;97552.16;;;31.05;36.40
50518;BME280;37075;44.084;2.962;2023-09-12T14:28:47;97544.84;;;30.98;35.84
50518;BME280;37075;44.084;2.962;2023-09-12T14:31:34;97539.34;;;30.95;35.86
50518;BME280;37075;44.084;2.962;2023-09-12T14:34:21;97542.63;;;30.93;36.32
50518;BME280;37075;44.084;2.962;2023-09-12T14:37:08;97533.25;;;30.96;36.01
50518;BME280;37075;44.084;2.962;2023-09-12T14:39:55;97523.69;;;31.03;36.29
50518;BME280;37075;44.084;2.962;2023-09-12T14:42:41;97521.00;;;31.09;35.79
50518;BME280;37075;44.084;2.962;2023-09-12T14:45:27;97526.47;;;31.12;35.68
50518;BME280;37075;44.084;2.962;2023-09-12T14:48:13;97524.56;;;31.18;35.99
50518;BME280;37075;44.084;2.962;2023-09-12T14:50:59;97517.97;;;31.31;36.00
50518;BME280;37075;44.084;2.962;2023-09-12T14:53:47;97520.31;;;31.56;36.03